sensor_id;sensor_type;location;lat;lon;timestamp;P1;durP1;ratioP1;P2;durP2;ratioP2
36283;SDS011;56085;48.910;9.478;2023-09-18T00:00:21;3.47;;;2.08;;
36283;SDS011;56085;48.910;9.478;2023-09-18T00:02:46;3.90;;;2.28;;
36283;SDS011;56085;48.910;9.478;2023-09-18T00:05:12;7.53;;;2.40;;
36283;SDS011;56085;48.910;9.478;2023-09-18T00:07:41;3.95;;;2.10;;
36283;SDS011;56085;48.910;9.478;2023-09-18T00:10:08;4.05;;;2.60;;
36283;SDS011;56085;48.910;9.478;2023-09-18T00:12:34;3.67;;;2.30;;
36283;SDS011;56085;48.910;9.478;2023-09-18T00:14:59;6.05;;;2.63;;
36283;SDS011;56085;48.910;9.478;2023-09-18T00:17:25;2.95;;;2.20;;
36283;SDS011;56085;48.910;9.478;2023-09-18T00:19:50;5.32;;;2.35;;
36283;SDS011;56085;48.910;9.478;2023-09-18T00:22:16;4.05;;;2.33;;
36283;SDS011;56085;48.910;9.478;2023-09-18T00:24:42;6.18;;;2.42;;
36283;SDS011;56085;48.910;9.478;2023-09-18T00:27:07;3.78;;;2.50;;
36283;SDS011;56085;48.910;9.478;2023-09-18T00:29:32;4.13;;;2.55;;
36283;SDS011;56085;48.910;9.478;2023-09-18T00:31:58;3.42;;;2.40;;
36283;SDS011;56085;48.910;9.478;2023-09-18T00:34:23;3.45;;;2.40;;
36283;SDS011;56085;48.910;9.478;2023-09-18T00:36:48;6.00;;;2.22;;
36283;SDS011;56085;48.910;9.478;2023-09-18T00:39:14;5.72;;;2.65;;
36283;SDS011;56085;48.910;9.478;2023-09-18T00:41:40;3.55;;;2.40;;
36283;SDS011;56085;48.910;9.478;2023-09-18T00:44:06;4.68;;;2.33;;
36283;SDS011;56085;48.910;9.478;2023-09-18T00:46:32;5.60;;;2.80;;
36283;SDS011;56085;48.910;9.478;2023-09-18T00:48:58;3.95;;;2.40;;
36283;SDS011;56085;48.910;9.478;2023-09-18T00:51:23;3.72;;;2.25;;
36283;SDS011;56085;48.910;9.478;2023-09-18T00:53:49;5.25;;;2.80;;
36283;SDS011;56085;48.910;9.478;2023-09-18T00:56:15;4.53;;;2.72;;
36283;SDS011;56085;48.910;9.478;2023-09-18T00:58:41;3.88;;;2.28;;
36283;SDS011;56085;48.910;9.478;2023-09-18T01:01:06;3.80;;;2.45;;
36283;SDS011;56085;48.910;9.478;2023-09-18T01:03:33;3.55;;;2.50;;
36283;SDS011;56085;48.910;9.478;2023-09-18T01:05:59;4.43;;;2.50;;
36283;SDS011;56085;48.910;9.478;2023-09-18T01:08:24;3.47;;;2.53;;
36283;SDS011;56085;48.910;9.478;2023-09-18T01:10:56;3.28;;;2.35;;
36283;SDS011;56085;48.910;9.478;2023-09-18T01:13:27;4.93;;;2.55;;
36283;SDS011;56085;48.910;9.478;2023-09-18T01:16:04;5.70;;;2.38;;
36283;SDS011;56085;48.910;9.478;2023-09-18T01:18:35;2.88;;;1.95;;
36283;SDS011;56085;48.910;9.478;2023-09-18T01:21:00;4.07;;;2.80;;
36283;SDS011;56085;48.910;9.478;2023-09-18T01:23:25;4.57;;;2.30;;
36283;SDS011;56085;48.910;9.478;2023-09-18T01:25:50;4.18;;;2.50;;
36283;SDS011;56085;48.910;9.478;2023-09-18T01:28:16;3.88;;;2.25;;
36283;SDS011;56085;48.910;9.478;2023-09-18T01:30:41;6.25;;;2.58;;
36283;SDS011;56085;48.910;9.478;2023-09-18T01:33:07;5.53;;;3.55;;
36283;SDS011;56085;48.910;9.478;2023-09-18T01:35:34;3.85;;;2.42;;
36283;SDS011;56085;48.910;9.478;2023-09-18T01:37:59;4.15;;;2.80;;
36283;SDS011;56085;48.910;9.478;2023-09-18T01:40:25;3.53;;;2.72;;
36283;SDS011;56085;48.910;9.478;2023-09-18T01:42:51;3.80;;;2.35;;
36283;SDS011;56085;48.910;9.478;2023-09-18T01:45:17;3.63;;;2.70;;
36283;SDS011;56085;48.910;9.478;2023-09-18T01:47:43;4.57;;;2.63;;
36283;SDS011;56085;48.910;9.478;2023-09-18T01:50:08;4.82;;;2.90;;
36283;SDS011;56085;48.910;9.478;2023-09-18T01:52:34;3.63;;;2.47;;
36283;SDS011;56085;48.910;9.478;2023-09-18T01:55:00;3.97;;;2.65;;
36283;SDS011;56085;48.910;9.478;2023-09-18T01:57:25;4.72;;;2.80;;
36283;SDS011;56085;48.910;9.478;2023-09-18T01:59:51;5.68;;;3.15;;
36283;SDS011;56085;48.910;9.478;2023-09-18T02:02:16;4.93;;;2.67;;
36283;SDS011;56085;48.910;9.478;2023-09-18T02:04:41;3.50;;;2.50;;
36283;SDS011;56085;48.910;9.478;2023-09-18T02:07:06;4.18;;;2.80;;
36283;SDS011;56085;48.910;9.478;2023-09-18T02:09:32;5.75;;;2.85;;
36283;SDS011;56085;48.910;9.478;2023-09-18T02:11:57;5.47;;;2.50;;
36283;SDS011;56085;48.910;9.478;2023-09-18T02:14:23;3.97;;;2.90;;
36283;SDS011;56085;48.910;9.478;2023-09-18T02:16:48;3.42;;;2.22;;
36283;SDS011;56085;48.910;9.478;2023-09-18T02:19:14;6.60;;;2.67;;
36283;SDS011;56085;48.910;9.478;2023-09-18T02:21:40;8.07;;;2.97;;
36283;SDS011;56085;48.910;9.478;2023-09-18T02:24:05;7.93;;;3.25;;
36283;SDS011;56085;48.910;9.478;2023-09-18T02:26:31;5.45;;;3.15;;
36283;SDS011;56085;48.910;9.478;2023-09-18T02:28:58;6.05;;;2.95;;
36283;SDS011;56085;48.910;9.478;2023-09-18T02:31:24;4.50;;;2.83;;
36283;SDS011;56085;48.910;9.478;2023-09-18T02:33:49;6.72;;;2.85;;
36283;SDS011;56085;48.910;9.478;2023-09-18T02:36:15;6.70;;;3.08;;
36283;SDS011;56085;48.910;9.478;2023-09-18T02:38:40;5.55;;;2.75;;
36283;SDS011;56085;48.910;9.478;2023-09-18T02:41:06;4.47;;;2.92;;
36283;SDS011;56085;48.910;9.478;2023-09-18T02:43:31;7.32;;;3.00;;
36283;SDS011;56085;48.910;9.478;2023-09-18T02:45:57;6.13;;;2.80;;
36283;SDS011;56085;48.910;9.478;2023-09-18T02:48:22;4.63;;;2.40;;
36283;SDS011;56085;48.910;9.478;2023-09-18T02:50:47;7.07;;;2.55;;
36283;SDS011;56085;48.910;9.478;2023-09-18T02:55:46;5.45;;;2.40;;
36283;SDS011;56085;48.910;9.478;2023-09-18T02:58:15;6.07;;;3.00;;
36283;SDS011;56085;48.910;9.478;2023-09-18T03:00:44;5.32;;;2.55;;
36283;SDS011;56085;48.910;9.478;2023-09-18T03:03:11;4.72;;;2.90;;
36283;SDS011;56085;48.910;9.478;2023-09-18T03:05:38;8.73;;;2.90;;
36283;SDS011;56085;48.910;9.478;2023-09-18T03:08:04;4.85;;;2.65;;
36283;SDS011;56085;48.910;9.478;2023-09-18T03:10:33;5.60;;;2.90;;
36283;SDS011;56085;48.910;9.478;2023-09-18T03:13:00;4.40;;;2.88;;
36283;SDS011;56085;48.910;9.478;2023-09-18T03:15:26;6.38;;;2.95;;
36283;SDS011;56085;48.910;9.478;2023-09-18T03:17:51;9.85;;;3.85;;
36283;SDS011;56085;48.910;9.478;2023-09-18T03:20:16;7.28;;;3.70;;
36283;SDS011;56085;48.910;9.478;2023-09-18T03:22:41;5.30;;;3.20;;
36283;SDS011;56085;48.910;9.478;2023-09-18T03:25:07;7.80;;;3.83;;
36283;SDS011;56085;48.910;9.478;2023-09-18T03:27:32;5.63;;;3.42;;
36283;SDS011;56085;48.910;9.478;2023-09-18T03:29:58;5.15;;;3.22;;
36283;SDS011;56085;48.910;9.478;2023-09-18T03:32:23;6.95;;;3.47;;
36283;SDS011;56085;48.910;9.478;2023-09-18T03:34:52;7.00;;;3.53;;
36283;SDS011;56085;48.910;9.478;2023-09-18T03:37:17;7.72;;;3.13;;
36283;SDS011;56085;48.910;9.478;2023-09-18T03:39:43;7.88;;;3.30;;
36283;SDS011;56085;48.910;9.478;2023-09-18T03:42:09;9.52;;;3.45;;
36283;SDS011;56085;48.910;9.478;2023-09-18T03:44:34;5.05;;;3.05;;
36283;SDS011;56085;48.910;9.478;2023-09-18T03:46:59;5.68;;;2.78;;
36283;SDS011;56085;48.910;9.478;2023-09-18T03:49:24;4.00;;;2.35;;
36283;SDS011;56085;48.910;9.478;2023-09-18T03:51:50;6.25;;;3.08;;
36283;SDS011;56085;48.910;9.478;2023-09-18T03:54:15;6.13;;;3.13;;
36283;SDS011;56085;48.910;9.478;2023-09-18T03:56:40;6.70;;;3.28;;
36283;SDS011;56085;48.910;9.478;2023-09-18T03:59:06;5.32;;;2.65;;
36283;SDS011;56085;48.910;9.478;2023-09-18T04:01:31;7.70;;;2.83;;
36283;SDS011;56085;48.910;9.478;2023-09-18T04:03:56;5.68;;;3.13;;
36283;SDS011;56085;48.910;9.478;2023-09-18T04:06:23;5.75;;;3.08;;
36283;SDS011;56085;48.910;9.478;2023-09-18T04:08:51;10.02;;;3.25;;
36283;SDS011;56085;48.910;9.478;2023-09-18T04:11:16;10.50;;;2.97;;
36283;SDS011;56085;48.910;9.478;2023-09-18T04:13:43;5.82;;;2.38;;
36283;SDS011;56085;48.910;9.478;2023-09-18T04:16:09;12.00;;;2.88;;
36283;SDS011;56085;48.910;9.478;2023-09-18T04:18:36;6.75;;;3.50;;
36283;SDS011;56085;48.910;9.478;2023-09-18T04:21:01;5.25;;;3.35;;
36283;SDS011;56085;48.910;9.478;2023-09-18T04:23:27;7.25;;;2.97;;
36283;SDS011;56085;48.910;9.478;2023-09-18T04:25:53;6.60;;;2.67;;
36283;SDS011;56085;48.910;9.478;2023-09-18T04:28:20;11.40;;;3.35;;
36283;SDS011;56085;48.910;9.478;2023-09-18T04:30:47;6.10;;;3.40;;
36283;SDS011;56085;48.910;9.478;2023-09-18T04:33:18;6.13;;;3.40;;
36283;SDS011;56085;48.910;9.478;2023-09-18T04:35:50;8.68;;;3.13;;
36283;SDS011;56085;48.910;9.478;2023-09-18T04:38:15;6.85;;;3.40;;
36283;SDS011;56085;48.910;9.478;2023-09-18T04:40:41;5.45;;;3.22;;
36283;SDS011;56085;48.910;9.478;2023-09-18T04:43:07;4.65;;;2.25;;
36283;SDS011;56085;48.910;9.478;2023-09-18T04:45:33;8.00;;;3.58;;
36283;SDS011;56085;48.910;9.478;2023-09-18T04:47:58;4.88;;;2.60;;
36283;SDS011;56085;48.910;9.478;2023-09-18T04:50:24;6.32;;;3.22;;
36283;SDS011;56085;48.910;9.478;2023-09-18T04:52:51;6.60;;;3.47;;
36283;SDS011;56085;48.910;9.478;2023-09-18T04:55:17;7.50;;;3.50;;
36283;SDS011;56085;48.910;9.478;2023-09-18T04:57:42;5.70;;;3.03;;
36283;SDS011;56085;48.910;9.478;2023-09-18T05:00:07;8.32;;;3.05;;
36283;SDS011;56085;48.910;9.478;2023-09-18T05:02:35;4.65;;;3.67;;
36283;SDS011;56085;48.910;9.478;2023-09-18T05:05:01;5.70;;;3.08;;
36283;SDS011;56085;48.910;9.478;2023-09-18T05:07:28;6.65;;;3.10;;
36283;SDS011;56085;48.910;9.478;2023-09-18T05:09:53;5.35;;;3.17;;
36283;SDS011;56085;48.910;9.478;2023-09-18T05:12:18;8.77;;;3.00;;
36283;SDS011;56085;48.910;9.478;2023-09-18T05:14:44;6.75;;;3.90;;
36283;SDS011;56085;48.910;9.478;2023-09-18T05:17:14;7.00;;;3.25;;
36283;SDS011;56085;48.910;9.478;2023-09-18T05:19:40;6.15;;;3.22;;
36283;SDS011;56085;48.910;9.478;2023-09-18T05:22:05;5.95;;;2.92;;
36283;SDS011;56085;48.910;9.478;2023-09-18T05:24:31;5.88;;;3.17;;
36283;SDS011;56085;48.910;9.478;2023-09-18T05:26:56;7.55;;;3.22;;
36283;SDS011;56085;48.910;9.478;2023-09-18T05:29:22;8.30;;;3.60;;
36283;SDS011;56085;48.910;9.478;2023-09-18T05:31:47;6.10;;;3.05;;
36283;SDS011;56085;48.910;9.478;2023-09-18T05:34:12;6.43;;;2.85;;
36283;SDS011;56085;48.910;9.478;2023-09-18T05:36:38;6.82;;;2.95;;
36283;SDS011;56085;48.910;9.478;2023-09-18T05:39:04;4.60;;;2.65;;
36283;SDS011;56085;48.910;9.478;2023-09-18T05:41:29;9.68;;;3.83;;
36283;SDS011;56085;48.910;9.478;2023-09-18T05:43:56;7.10;;;3.20;;
36283;SDS011;56085;48.910;9.478;2023-09-18T05:46:21;9.40;;;3.00;;
36283;SDS011;56085;48.910;9.478;2023-09-18T05:48:47;7.70;;;2.97;;
36283;SDS011;56085;48.910;9.478;2023-09-18T05:51:12;6.45;;;2.78;;
36283;SDS011;56085;48.910;9.478;2023-09-18T05:53:38;6.55;;;2.65;;
36283;SDS011;56085;48.910;9.478;2023-09-18T05:56:04;10.20;;;3.08;;
36283;SDS011;56085;48.910;9.478;2023-09-18T05:58:32;7.32;;;2.78;;
36283;SDS011;56085;48.910;9.478;2023-09-18T06:00:58;6.70;;;2.72;;
36283;SDS011;56085;48.910;9.478;2023-09-18T06:03:25;4.90;;;2.55;;
36283;SDS011;56085;48.910;9.478;2023-09-18T06:05:51;7.95;;;2.72;;
36283;SDS011;56085;48.910;9.478;2023-09-18T06:08:16;7.10;;;2.67;;
36283;SDS011;56085;48.910;9.478;2023-09-18T06:10:43;7.32;;;2.90;;
36283;SDS011;56085;48.910;9.478;2023-09-18T06:13:09;5.97;;;2.33;;
36283;SDS011;56085;48.910;9.478;2023-09-18T06:15:34;5.18;;;2.33;;
36283;SDS011;56085;48.910;9.478;2023-09-18T06:18:00;4.50;;;2.85;;
36283;SDS011;56085;48.910;9.478;2023-09-18T06:20:25;13.15;;;3.22;;
36283;SDS011;56085;48.910;9.478;2023-09-18T06:22:50;6.50;;;2.60;;
36283;SDS011;56085;48.910;9.478;2023-09-18T06:25:15;8.48;;;2.83;;
36283;SDS011;56085;48.910;9.478;2023-09-18T06:27:41;6.95;;;2.40;;
36283;SDS011;56085;48.910;9.478;2023-09-18T06:30:06;4.68;;;2.40;;
36283;SDS011;56085;48.910;9.478;2023-09-18T06:32:32;7.13;;;2.85;;
36283;SDS011;56085;48.910;9.478;2023-09-18T06:34:57;4.70;;;2.10;;
36283;SDS011;56085;48.910;9.478;2023-09-18T06:37:23;9.45;;;3.30;;
36283;SDS011;56085;48.910;9.478;2023-09-18T06:39:49;6.47;;;2.95;;
36283;SDS011;56085;48.910;9.478;2023-09-18T06:42:14;5.22;;;2.55;;
36283;SDS011;56085;48.910;9.478;2023-09-18T06:44:40;6.82;;;2.83;;
36283;SDS011;56085;48.910;9.478;2023-09-18T06:47:06;7.88;;;2.72;;
36283;SDS011;56085;48.910;9.478;2023-09-18T06:49:31;8.73;;;2.95;;
36283;SDS011;56085;48.910;9.478;2023-09-18T06:51:57;5.80;;;2.33;;
36283;SDS011;56085;48.910;9.478;2023-09-18T06:54:23;9.35;;;2.90;;
36283;SDS011;56085;48.910;9.478;2023-09-18T06:56:48;5.32;;;2.53;;
36283;SDS011;56085;48.910;9.478;2023-09-18T06:59:14;8.07;;;2.65;;
36283;SDS011;56085;48.910;9.478;2023-09-18T07:01:39;7.05;;;2.17;;
36283;SDS011;56085;48.910;9.478;2023-09-18T07:04:07;6.60;;;2.20;;
36283;SDS011;56085;48.910;9.478;2023-09-18T07:06:32;3.83;;;1.90;;
36283;SDS011;56085;48.910;9.478;2023-09-18T07:08:58;4.05;;;1.85;;
36283;SDS011;56085;48.910;9.478;2023-09-18T07:11:24;9.10;;;2.22;;
36283;SDS011;56085;48.910;9.478;2023-09-18T07:13:50;8.50;;;2.03;;
36283;SDS011;56085;48.910;9.478;2023-09-18T07:16:15;6.15;;;1.98;;
36283;SDS011;56085;48.910;9.478;2023-09-18T07:18:41;5.88;;;1.50;;
36283;SDS011;56085;48.910;9.478;2023-09-18T07:21:06;7.47;;;2.30;;
36283;SDS011;56085;48.910;9.478;2023-09-18T07:23:32;6.47;;;1.85;;
36283;SDS011;56085;48.910;9.478;2023-09-18T07:25:57;6.85;;;2.10;;
36283;SDS011;56085;48.910;9.478;2023-09-18T07:28:23;5.53;;;1.88;;
36283;SDS011;56085;48.910;9.478;2023-09-18T07:30:49;6.45;;;1.95;;
36283;SDS011;56085;48.910;9.478;2023-09-18T07:33:15;8.80;;;2.50;;
36283;SDS011;56085;48.910;9.478;2023-09-18T07:35:42;3.83;;;1.35;;
36283;SDS011;56085;48.910;9.478;2023-09-18T07:38:12;6.43;;;1.63;;
36283;SDS011;56085;48.910;9.478;2023-09-18T07:40:37;5.32;;;1.58;;
36283;SDS011;56085;48.910;9.478;2023-09-18T07:43:03;7.85;;;1.75;;
36283;SDS011;56085;48.910;9.478;2023-09-18T07:45:28;11.00;;;2.30;;
36283;SDS011;56085;48.910;9.478;2023-09-18T07:47:53;7.63;;;1.60;;
36283;SDS011;56085;48.910;9.478;2023-09-18T07:50:19;12.23;;;1.92;;
36283;SDS011;56085;48.910;9.478;2023-09-18T07:52:44;4.22;;;1.45;;
36283;SDS011;56085;48.910;9.478;2023-09-18T07:55:10;4.10;;;1.42;;
36283;SDS011;56085;48.910;9.478;2023-09-18T07:57:35;7.68;;;1.52;;
36283;SDS011;56085;48.910;9.478;2023-09-18T08:00:02;4.22;;;1.52;;
36283;SDS011;56085;48.910;9.478;2023-09-18T08:02:34;6.85;;;1.50;;
36283;SDS011;56085;48.910;9.478;2023-09-18T08:05:00;3.13;;;1.25;;
36283;SDS011;56085;48.910;9.478;2023-09-18T08:07:26;5.60;;;2.08;;
36283;SDS011;56085;48.910;9.478;2023-09-18T08:09:53;4.72;;;1.58;;
36283;SDS011;56085;48.910;9.478;2023-09-18T08:12:19;5.90;;;1.77;;
36283;SDS011;56085;48.910;9.478;2023-09-18T08:14:45;4.13;;;1.20;;
36283;SDS011;56085;48.910;9.478;2023-09-18T08:17:11;7.32;;;1.63;;
36283;SDS011;56085;48.910;9.478;2023-09-18T08:19:37;3.72;;;1.55;;
36283;SDS011;56085;48.910;9.478;2023-09-18T08:22:03;7.32;;;1.27;;
36283;SDS011;56085;48.910;9.478;2023-09-18T08:24:29;4.75;;;1.40;;
36283;SDS011;56085;48.910;9.478;2023-09-18T08:26:55;5.10;;;1.55;;
36283;SDS011;56085;48.910;9.478;2023-09-18T08:29:20;2.90;;;1.38;;
36283;SDS011;56085;48.910;9.478;2023-09-18T08:31:46;4.10;;;1.27;;
36283;SDS011;56085;48.910;9.478;2023-09-18T08:34:12;3.33;;;1.10;;
36283;SDS011;56085;48.910;9.478;2023-09-18T08:36:37;4.15;;;1.80;;
36283;SDS011;56085;48.910;9.478;2023-09-18T08:39:03;5.50;;;1.50;;
36283;SDS011;56085;48.910;9.478;2023-09-18T08:41:32;6.05;;;1.60;;
36283;SDS011;56085;48.910;9.478;2023-09-18T08:44:00;2.83;;;1.27;;
36283;SDS011;56085;48.910;9.478;2023-09-18T08:46:28;4.22;;;1.25;;
36283;SDS011;56085;48.910;9.478;2023-09-18T08:48:54;5.88;;;1.67;;
36283;SDS011;56085;48.910;9.478;2023-09-18T08:51:20;5.00;;;1.38;;
36283;SDS011;56085;48.910;9.478;2023-09-18T08:53:47;3.20;;;1.23;;
36283;SDS011;56085;48.910;9.478;2023-09-18T08:56:13;4.50;;;1.60;;
36283;SDS011;56085;48.910;9.478;2023-09-18T08:58:39;3.40;;;1.02;;
36283;SDS011;56085;48.910;9.478;2023-09-18T09:01:07;4.28;;;1.10;;
36283;SDS011;56085;48.910;9.478;2023-09-18T09:03:38;1.80;;;0.70;;
36283;SDS011;56085;48.910;9.478;2023-09-18T09:06:07;2.38;;;0.95;;
36283;SDS011;56085;48.910;9.478;2023-09-18T09:08:34;5.40;;;2.40;;
36283;SDS011;56085;48.910;9.478;2023-09-18T09:11:00;5.90;;;2.88;;
36283;SDS011;56085;48.910;9.478;2023-09-18T09:13:26;1.73;;;1.00;;
36283;SDS011;56085;48.910;9.478;2023-09-18T09:15:52;5.78;;;1.17;;
36283;SDS011;56085;48.910;9.478;2023-09-18T09:18:21;5.50;;;2.47;;
36283;SDS011;56085;48.910;9.478;2023-09-18T09:20:57;6.50;;;1.83;;
36283;SDS011;56085;48.910;9.478;2023-09-18T09:23:28;2.38;;;0.77;;
36283;SDS011;56085;48.910;9.478;2023-09-18T09:26:12;2.33;;;0.90;;
36283;SDS011;56085;48.910;9.478;2023-09-18T09:28:39;2.50;;;1.00;;
36283;SDS011;56085;48.910;9.478;2023-09-18T09:31:05;3.70;;;1.20;;
36283;SDS011;56085;48.910;9.478;2023-09-18T09:33:31;4.70;;;1.33;;
36283;SDS011;56085;48.910;9.478;2023-09-18T09:35:56;2.30;;;0.85;;
36283;SDS011;56085;48.910;9.478;2023-09-18T09:38:29;2.55;;;0.70;;
36283;SDS011;56085;48.910;9.478;2023-09-18T09:40:59;3.92;;;0.85;;
36283;SDS011;56085;48.910;9.478;2023-09-18T09:43:27;3.15;;;0.80;;
36283;SDS011;56085;48.910;9.478;2023-09-18T09:46:00;2.25;;;1.08;;
36283;SDS011;56085;48.910;9.478;2023-09-18T09:48:26;2.40;;;1.05;;
36283;SDS011;56085;48.910;9.478;2023-09-18T09:50:52;7.10;;;1.08;;
36283;SDS011;56085;48.910;9.478;2023-09-18T09:54:04;1.75;;;0.80;;
36283;SDS011;56085;48.910;9.478;2023-09-18T09:56:13;2.10;;;0.82;;
36283;SDS011;56085;48.910;9.478;2023-09-18T09:58:38;1.65;;;0.80;;
36283;SDS011;56085;48.910;9.478;2023-09-18T10:01:09;1.75;;;0.80;;
36283;SDS011;56085;48.910;9.478;2023-09-18T10:03:42;3.95;;;0.90;;
36283;SDS011;56085;48.910;9.478;2023-09-18T10:06:09;3.28;;;0.70;;
36283;SDS011;56085;48.910;9.478;2023-09-18T10:08:38;2.17;;;0.60;;
36283;SDS011;56085;48.910;9.478;2023-09-18T10:11:08;1.90;;;0.80;;
36283;SDS011;56085;48.910;9.478;2023-09-18T10:16:20;3.85;;;0.77;;
36283;SDS011;56085;48.910;9.478;2023-09-18T10:24:18;2.70;;;1.05;;
36283;SDS011;56085;48.910;9.478;2023-09-18T10:27:00;1.85;;;1.08;;
36283;SDS011;56085;48.910;9.478;2023-09-18T10:29:29;1.55;;;0.80;;
36283;SDS011;56085;48.910;9.478;2023-09-18T10:31:57;1.77;;;0.80;;
36283;SDS011;56085;48.910;9.478;2023-09-18T10:34:23;1.30;;;0.68;;
36283;SDS011;56085;48.910;9.478;2023-09-18T10:36:50;2.88;;;1.00;;
36283;SDS011;56085;48.910;9.478;2023-09-18T10:39:18;7.20;;;1.40;;
36283;SDS011;56085;48.910;9.478;2023-09-18T10:41:53;2.63;;;0.88;;
36283;SDS011;56085;48.910;9.478;2023-09-18T10:46:46;2.47;;;0.67;;
36283;SDS011;56085;48.910;9.478;2023-09-18T10:49:12;2.78;;;1.20;;
36283;SDS011;56085;48.910;9.478;2023-09-18T10:51:38;2.30;;;0.60;;
36283;SDS011;56085;48.910;9.478;2023-09-18T10:54:07;1.63;;;0.80;;
36283;SDS011;56085;48.910;9.478;2023-09-18T10:56:33;2.10;;;0.68;;
36283;SDS011;56085;48.910;9.478;2023-09-18T10:58:59;4.80;;;0.82;;
36283;SDS011;56085;48.910;9.478;2023-09-18T11:01:27;3.50;;;0.82;;
36283;SDS011;56085;48.910;9.478;2023-09-18T11:03:57;4.50;;;1.40;;
36283;SDS011;56085;48.910;9.478;2023-09-18T11:06:24;3.80;;;0.80;;
36283;SDS011;56085;48.910;9.478;2023-09-18T11:09:00;1.77;;;0.88;;
36283;SDS011;56085;48.910;9.478;2023-09-18T11:11:29;2.33;;;0.80;;
36283;SDS011;56085;48.910;9.478;2023-09-18T11:13:58;1.67;;;0.65;;
36283;SDS011;56085;48.910;9.478;2023-09-18T11:18:53;4.18;;;1.35;;
36283;SDS011;56085;48.910;9.478;2023-09-18T11:21:26;2.83;;;0.95;;
36283;SDS011;56085;48.910;9.478;2023-09-18T11:26:24;1.00;;;0.60;;
36283;SDS011;56085;48.910;9.478;2023-09-18T11:28:53;1.48;;;0.80;;
36283;SDS011;56085;48.910;9.478;2023-09-18T11:31:19;1.85;;;0.60;;
36283;SDS011;56085;48.910;9.478;2023-09-18T11:33:47;2.35;;;0.60;;
36283;SDS011;56085;48.910;9.478;2023-09-18T11:36:34;1.77;;;0.65;;
36283;SDS011;56085;48.910;9.478;2023-09-18T11:38:59;1.70;;;0.63;;
36283;SDS011;56085;48.910;9.478;2023-09-18T11:41:32;2.80;;;0.80;;
36283;SDS011;56085;48.910;9.478;2023-09-18T11:46:31;1.92;;;0.80;;
36283;SDS011;56085;48.910;9.478;2023-09-18T11:48:58;1.52;;;0.47;;
36283;SDS011;56085;48.910;9.478;2023-09-18T11:51:24;0.90;;;0.57;;
36283;SDS011;56085;48.910;9.478;2023-09-18T11:53:53;1.38;;;0.70;;
36283;SDS011;56085;48.910;9.478;2023-09-18T11:56:20;3.72;;;1.80;;
36283;SDS011;56085;48.910;9.478;2023-09-18T11:58:47;3.85;;;2.20;;
36283;SDS011;56085;48.910;9.478;2023-09-18T12:01:17;9.48;;;4.43;;
36283;SDS011;56085;48.910;9.478;2023-09-18T12:03:43;5.72;;;1.90;;
36283;SDS011;56085;48.910;9.478;2023-09-18T12:06:10;2.78;;;1.00;;
36283;SDS011;56085;48.910;9.478;2023-09-18T12:08:38;3.05;;;1.02;;
36283;SDS011;56085;48.910;9.478;2023-09-18T12:11:06;7.72;;;0.90;;
36283;SDS011;56085;48.910;9.478;2023-09-18T12:13:31;1.48;;;0.75;;
36283;SDS011;56085;48.910;9.478;2023-09-18T12:16:01;1.55;;;0.90;;
36283;SDS011;56085;48.910;9.478;2023-09-18T12:18:29;3.22;;;0.75;;
36283;SDS011;56085;48.910;9.478;2023-09-18T12:20:55;1.20;;;0.60;;
36283;SDS011;56085;48.910;9.478;2023-09-18T12:23:29;1.33;;;0.70;;
36283;SDS011;56085;48.910;9.478;2023-09-18T12:25:58;1.58;;;0.70;;
36283;SDS011;56085;48.910;9.478;2023-09-18T12:28:25;2.13;;;0.90;;
36283;SDS011;56085;48.910;9.478;2023-09-18T12:30:53;0.77;;;0.38;;
36283;SDS011;56085;48.910;9.478;2023-09-18T12:33:21;1.98;;;0.82;;
36283;SDS011;56085;48.910;9.478;2023-09-18T12:35:47;3.63;;;1.00;;
36283;SDS011;56085;48.910;9.478;2023-09-18T12:38:16;2.90;;;1.40;;
36283;SDS011;56085;48.910;9.478;2023-09-18T12:40:44;3.50;;;0.90;;
36283;SDS011;56085;48.910;9.478;2023-09-18T12:43:11;2.92;;;0.90;;
36283;SDS011;56085;48.910;9.478;2023-09-18T12:45:37;6.47;;;1.00;;
36283;SDS011;56085;48.910;9.478;2023-09-18T12:48:03;1.55;;;0.70;;
36283;SDS011;56085;48.910;9.478;2023-09-18T12:50:29;1.95;;;0.75;;
36283;SDS011;56085;48.910;9.478;2023-09-18T12:53:05;2.75;;;0.95;;
36283;SDS011;56085;48.910;9.478;2023-09-18T12:55:34;5.40;;;0.85;;
36283;SDS011;56085;48.910;9.478;2023-09-18T12:58:00;2.78;;;0.70;;
36283;SDS011;56085;48.910;9.478;2023-09-18T13:00:30;3.20;;;0.77;;
36283;SDS011;56085;48.910;9.478;2023-09-18T13:02:56;2.00;;;0.90;;
36283;SDS011;56085;48.910;9.478;2023-09-18T13:05:22;2.97;;;0.90;;
36283;SDS011;56085;48.910;9.478;2023-09-18T13:07:52;2.25;;;0.70;;
36283;SDS011;56085;48.910;9.478;2023-09-18T13:10:18;1.58;;;0.70;;
36283;SDS011;56085;48.910;9.478;2023-09-18T13:12:50;1.67;;;0.82;;
36283;SDS011;56085;48.910;9.478;2023-09-18T13:15:27;2.72;;;0.63;;
36283;SDS011;56085;48.910;9.478;2023-09-18T13:17:54;1.35;;;0.80;;
36283;SDS011;56085;48.910;9.478;2023-09-18T13:20:21;2.25;;;0.95;;
36283;SDS011;56085;48.910;9.478;2023-09-18T13:22:51;3.30;;;1.40;;
36283;SDS011;56085;48.910;9.478;2023-09-18T13:28:00;1.27;;;0.75;;
36283;SDS011;56085;48.910;9.478;2023-09-18T13:30:28;2.65;;;0.85;;
36283;SDS011;56085;48.910;9.478;2023-09-18T13:33:05;2.17;;;0.88;;
36283;SDS011;56085;48.910;9.478;2023-09-18T13:35:33;6.72;;;1.20;;
36283;SDS011;56085;48.910;9.478;2023-09-18T13:38:00;2.63;;;0.88;;
36283;SDS011;56085;48.910;9.478;2023-09-18T13:40:29;4.95;;;0.88;;
36283;SDS011;56085;48.910;9.478;2023-09-18T13:42:54;6.75;;;0.80;;
36283;SDS011;56085;48.910;9.478;2023-09-18T13:45:19;2.08;;;1.10;;
36283;SDS011;56085;48.910;9.478;2023-09-18T13:47:45;3.72;;;1.02;;
36283;SDS011;56085;48.910;9.478;2023-09-18T13:50:10;0.67;;;0.50;;
36283;SDS011;56085;48.910;9.478;2023-09-18T13:52:37;1.58;;;0.75;;
36283;SDS011;56085;48.910;9.478;2023-09-18T13:55:03;2.00;;;0.77;;
36283;SDS011;56085;48.910;9.478;2023-09-18T13:57:32;1.27;;;0.90;;
36283;SDS011;56085;48.910;9.478;2023-09-18T13:59:59;2.38;;;0.95;;
36283;SDS011;56085;48.910;9.478;2023-09-18T14:02:25;2.63;;;0.80;;
36283;SDS011;56085;48.910;9.478;2023-09-18T14:04:52;1.83;;;0.82;;
36283;SDS011;56085;48.910;9.478;2023-09-18T14:07:18;1.42;;;0.68;;
36283;SDS011;56085;48.910;9.478;2023-09-18T14:09:43;6.13;;;0.80;;
36283;SDS011;56085;48.910;9.478;2023-09-18T14:12:11;1.75;;;0.50;;
36283;SDS011;56085;48.910;9.478;2023-09-18T14:14:36;1.85;;;0.77;;
36283;SDS011;56085;48.910;9.478;2023-09-18T14:17:02;2.50;;;0.83;;
36283;SDS011;56085;48.910;9.478;2023-09-18T14:19:30;1.42;;;0.60;;
36283;SDS011;56085;48.910;9.478;2023-09-18T14:21:56;1.27;;;0.80;;
36283;SDS011;56085;48.910;9.478;2023-09-18T14:24:21;3.05;;;1.00;;
36283;SDS011;56085;48.910;9.478;2023-09-18T14:26:47;2.63;;;0.90;;
36283;SDS011;56085;48.910;9.478;2023-09-18T14:29:13;1.98;;;0.90;;
36283;SDS011;56085;48.910;9.478;2023-09-18T14:31:39;3.00;;;1.13;;
36283;SDS011;56085;48.910;9.478;2023-09-18T14:34:05;2.60;;;1.05;;
36283;SDS011;56085;48.910;9.478;2023-09-18T14:36:36;2.95;;;0.98;;
36283;SDS011;56085;48.910;9.478;2023-09-18T14:39:04;2.30;;;0.95;;
36283;SDS011;56085;48.910;9.478;2023-09-18T14:41:33;3.22;;;0.75;;
36283;SDS011;56085;48.910;9.478;2023-09-18T14:44:00;2.13;;;0.75;;
36283;SDS011;56085;48.910;9.478;2023-09-18T14:46:26;1.83;;;0.63;;
36283;SDS011;56085;48.910;9.478;2023-09-18T14:48:51;2.63;;;0.70;;
36283;SDS011;56085;48.910;9.478;2023-09-18T14:51:16;3.47;;;0.85;;
36283;SDS011;56085;48.910;9.478;2023-09-18T14:53:42;3.63;;;1.08;;
36283;SDS011;56085;48.910;9.478;2023-09-18T14:56:08;4.00;;;0.95;;
36283;SDS011;56085;48.910;9.478;2023-09-18T14:58:33;1.85;;;0.70;;
36283;SDS011;56085;48.910;9.478;2023-09-18T15:00:58;1.15;;;0.75;;
36283;SDS011;56085;48.910;9.478;2023-09-18T15:03:24;3.08;;;0.88;;
36283;SDS011;56085;48.910;9.478;2023-09-18T15:05:50;2.92;;;0.80;;
36283;SDS011;56085;48.910;9.478;2023-09-18T15:08:17;3.33;;;0.90;;